Time;durP1;ratioP1;P1;durP2;ratioP2;P2;SDS_P1;SDS_P2;PMS_P1;PMS_P2;Temp;Humidity;BMP_temperature;BMP_pressure;BME280_temperature;BME280_humidity;BME280_pressure;Samples;Min_cycle;Max_cycle;Signal;HPM_P1;HPM_P2
2023/04/04 06:17:31;;;;;;;;;;;;;;;3.93;56.49;102076.48;107864;1268;59493;-87
2023/04/04 06:20:59;;;;;;;;;;;;;;;3.93;56.44;102075.12;107816;1264;70623;-89
2023/04/04 06:29:44;;;;;;;;;;;;;;;3.99;56.34;102069.38;108152;1263;73873;-90
2023/04/04 06:38:21;;;;;;;;;;;;;;;3.88;56.69;102070.35;108662;1264;67712;-90
2023/04/04 06:49:18;;;;;;;;;;;;;;;5.03;56.45;102063.61;108217;1262;75153;-89
2023/04/04 07:10:22;;;;;;;;;;;;;;;5.53;56.09;102051.01;108193;1261;60974;-88
2023/04/04 07:13:49;;;;;;;;;;;;;;;5.62;56.16;102052.11;108024;1262;61423;-88
2023/04/04 07:17:15;;;;;;;;;;;;;;;5.40;56.08;102059.86;108029;1262;71744;-89
2023/04/04 07:20:42;;;;;;;;;;;;;;;5.15;56.08;102059.00;108060;1263;67349;-88
2023/04/04 07:24:08;;;;;;;;;;;;;;;5.12;56.17;102062.83;107409;1269;71319;-88
2023/04/04 07:27:35;;;;;;;;;;;;;;;5.00;56.03;102062.32;107412;1269;59688;-89
2023/04/04 07:36:21;;;;;;;;;;;;;;;4.51;56.03;102064.73;108230;1261;67571;-88
2023/04/04 07:39:48;;;;;;;;;;;;;;;4.66;56.21;102060.24;108041;1263;72117;-89
2023/04/04 07:43:14;;;;;;;;;;;;;;;6.11;56.25;102046.38;108027;1262;58973;-89
2023/04/04 07:46:42;;;;;;;;;;;;;;;7.29;56.36;102044.90;107309;1271;59281;-89
2023/04/04 08:03:06;;;;;;;;;;;;;;;11.45;55.51;102034.22;108007;1263;72621;-89
2023/04/04 08:06:33;;;;;;;;;;;;;;;11.06;54.38;102034.27;107967;1264;68139;-89
2023/04/04 08:09:58;;;;;;;;;;;;;;;9.68;54.63;102030.98;107974;1262;71899;-89
2023/04/04 08:13:25;;;;;;;;;;;;;;;8.82;54.16;102036.87;107942;1266;59661;-89
2023/04/04 08:16:51;;;;;;;;;;;;;;;8.12;55.00;102036.13;107984;1263;59514;-89
2023/04/04 08:20:18;;;;;;;;;;;;;;;7.72;54.64;102031.33;107897;1264;71687;-89
2023/04/04 08:26:05;;;;;;;;;;;;;;;;;;;;;
2023/04/04 08:29:21;;;;;;;;;;;;;;;5.92;54.22;102025.52;108244;1263;57883;-89
2023/04/04 08:50:18;;;;;;;;;;;;;;;4.62;54.08;102018.64;108571;1262;67515;-89
2023/04/04 09:22:16;;;;;;;;;;;;;;;4.04;52.92;102010.31;108052;1262;57342;-89
2023/04/04 09:25:42;;;;;;;;;;;;;;;3.86;53.05;102008.54;107392;1272;59540;-87
2023/04/04 09:29:08;;;;;;;;;;;;;;;3.85;53.18;102006.27;107415;1270;73840;-89
2023/04/04 09:32:35;;;;;;;;;;;;;;;3.93;53.33;102006.89;107820;1271;67249;-88
2023/04/04 09:36:05;;;;;;;;;;;;;;;4.02;53.26;102008.54;107117;1277;72181;-89
2023/04/04 09:39:32;;;;;;;;;;;;;;;4.05;53.17;102005.91;107032;1277;59702;-89
2023/04/04 09:42:59;;;;;;;;;;;;;;;4.10;53.35;102008.30;107022;1277;59674;-88
2023/04/04 09:46:25;;;;;;;;;;;;;;;4.20;53.21;102006.06;106995;1278;74284;-88
2023/04/04 09:49:53;;;;;;;;;;;;;;;4.20;53.17;102006.56;107029;1277;68721;-89
2023/04/04 09:56:02;;;;;;;;;;;;;;;4.15;52.99;102014.09;108062;1263;59593;-89
2023/04/04 10:02:07;;;;;;;;;;;;;;;3.98;52.62;102012.69;108085;1263;73128;-89
2023/04/04 10:08:09;;;;;;;;;;;;;;;4.07;53.15;102001.04;108073;1262;72345;-89
2023/04/04 10:11:48;;;;;;;;;;;;;;;4.28;53.10;101995.21;107953;1266;59433;-88
2023/04/04 10:15:18;;;;;;;;;;;;;;;4.44;53.20;101992.66;108122;1264;59777;-89
2023/04/04 10:18:46;;;;;;;;;;;;;;;4.66;53.10;101996.21;107966;1263;71458;-89
2023/04/04 10:34:48;;;;;;;;;;;;;;;5.04;52.88;101985.55;108167;1263;67537;-89
2023/04/04 10:38:15;;;;;;;;;;;;;;;5.25;52.65;101976.70;107867;1272;71958;-89
2023/04/04 10:41:41;;;;;;;;;;;;;;;5.27;52.56;101970.44;107282;1276;59574;-88
2023/04/04 10:45:09;;;;;;;;;;;;;;;5.19;52.47;101971.44;107348;1274;62113;-89
2023/04/04 10:48:35;;;;;;;;;;;;;;;5.08;51.80;101969.92;107222;1274;72772;-89
2023/04/04 10:52:01;;;;;;;;;;;;;;;5.01;52.25;101968.69;107403;1274;68158;-89
2023/04/04 10:55:28;;;;;;;;;;;;;;;5.11;52.44;101965.05;107178;1274;71561;-89
2023/04/04 10:59:01;;;;;;;;;;;;;;;5.18;52.34;101960.48;107215;1274;58029;-88
2023/04/04 11:05:06;;;;;;;;;;;;;;;5.30;52.15;101958.39;108137;1263;72613;-88
2023/04/04 11:21:37;;;;;;;;;;;;;;;5.48;52.35;101926.04;108027;1263;73689;-89
2023/04/04 11:25:03;;;;;;;;;;;;;;;5.52;52.16;101921.50;108030;1263;72254;-89
2023/04/04 11:28:33;;;;;;;;;;;;;;;5.60;52.19;101920.67;107988;1263;59220;-88
2023/04/04 11:34:49;;;;;;;;;;;;;;;5.74;52.06;101914.16;108032;1264;73781;-89
2023/04/04 11:40:55;;;;;;;;;;;;;;;5.84;52.00;101910.98;108037;1263;71302;-88
2023/04/04 11:44:30;;;;;;;;;;;;;;;5.75;51.59;101911.80;107961;1264;59184;-89
2023/04/04 11:55:16;;;;;;;;;;;;;;;5.56;51.78;101901.08;108070;1264;72245;-89
2023/04/04 11:58:42;;;;;;;;;;;;;;;5.66;51.88;101893.47;107326;1273;60272;-89
2023/04/04 12:58:24;;;;;;;;;;;;;;;5.95;51.01;101825.55;108146;1263;67478;-89
2023/04/04 13:14:49;;;;;;;;;;;;;;;6.00;50.97;101815.38;108138;1262;72478;-90
2023/04/04 13:20:00;;;;;;;;;;;;;;;6.05;50.80;101806.08;108381;1264;59261;-85
2023/04/04 13:22:47;;;;;;;;;;;;;;;6.09;50.87;101802.92;108276;1263;72546;-86
2023/04/04 13:25:37;;;;;;;;;;;;;;;6.11;50.72;101799.71;108266;1263;68389;-86
2023/04/04 13:28:23;;;;;;;;;;;;;;;6.10;50.32;101792.15;108262;1264;70975;-86
2023/04/04 13:31:31;;;;;;;;;;;;;;;6.05;50.60;101786.22;108238;1263;59059;-85
2023/04/04 13:34:53;;;;;;;;;;;;;;;6.02;50.71;101785.48;108348;1263;58572;-86
2023/04/04 13:38:00;;;;;;;;;;;;;;;5.99;50.54;101780.63;108391;1263;72289;-88
2023/04/04 13:41:25;;;;;;;;;;;;;;;5.98;50.81;101782.48;108462;1269;67363;-88
2023/04/04 13:47:27;;;;;;;;;;;;;;;6.00;50.29;101777.22;108072;1266;75584;-88
2023/04/04 13:50:54;;;;;;;;;;;;;;;6.04;50.40;101775.23;108013;1264;58951;-88
2023/04/04 13:54:21;;;;;;;;;;;;;;;6.08;50.31;101773.29;108043;1265;72423;-89
2023/04/04 14:00:24;;;;;;;;;;;;;;;6.05;50.17;101769.95;108120;1264;72333;-89
2023/04/04 14:05:54;;;;;;;;;;;;;;;6.08;50.17;101765.73;108053;1266;77299;-89
2023/04/04 14:09:21;;;;;;;;;;;;;;;6.03;50.10;101762.39;108027;1262;73586;-89
2023/04/04 14:12:18;;;;;;;;;;;;;;;6.05;50.06;101754.54;108204;1264;67271;-87
2023/04/04 14:15:44;;;;;;;;;;;;;;;6.05;50.34;101756.95;107998;1264;71115;-88
2023/04/04 14:21:56;;;;;;;;;;;;;;;6.05;50.13;101758.33;108163;1262;60353;-89
2023/04/04 14:25:00;;;;;;;;;;;;;;;5.97;50.20;101756.45;108083;1263;73371;-89
2023/04/04 14:28:26;;;;;;;;;;;;;;;5.92;49.94;101748.11;107472;1269;67702;-89
2023/04/04 14:34:26;;;;;;;;;;;;;;;5.89;49.86;101747.35;108118;1263;60441;-89
2023/04/04 14:37:52;;;;;;;;;;;;;;;5.89;49.61;101742.91;107464;1269;60618;-89
2023/04/04 14:41:19;;;;;;;;;;;;;;;5.87;49.90;101736.70;107404;1269;72620;-88
2023/04/04 14:44:45;;;;;;;;;;;;;;;5.80;49.69;101738.60;107394;1271;68908;-89
2023/04/04 14:48:12;;;;;;;;;;;;;;;5.75;49.84;101733.01;107378;1271;71294;-89
2023/04/04 14:51:38;;;;;;;;;;;;;;;5.74;49.70;101726.83;107045;1276;58501;-89
2023/04/04 15:07:56;;;;;;;;;;;;;;;5.77;49.74;101722.95;108457;1262;75450;-89
2023/04/04 15:11:22;;;;;;;;;;;;;;;5.81;49.75;101720.64;108475;1262;72257;-89
2023/04/04 15:14:55;;;;;;;;;;;;;;;5.84;49.62;101722.09;107792;1266;68163;-88
2023/04/04 15:18:22;;;;;;;;;;;;;;;5.90;49.64;101716.95;108078;1269;72438;-88
2023/04/04 15:21:48;;;;;;;;;;;;;;;5.92;49.47;101712.36;107804;1269;59696;-89
2023/04/04 15:25:15;;;;;;;;;;;;;;;5.94;49.34;101705.38;107378;1276;60181;-89
2023/04/04 15:28:41;;;;;;;;;;;;;;;5.98;49.25;101702.56;107455;1277;71775;-88
2023/04/04 15:32:08;;;;;;;;;;;;;;;6.00;49.42;101702.92;107453;1276;66815;-88
2023/04/04 15:35:37;;;;;;;;;;;;;;;5.99;49.32;101701.02;107391;1276;71171;-88
2023/04/04 15:39:04;;;;;;;;;;;;;;;5.94;49.35;101704.86;107425;1276;58737;-89
2023/04/04 15:42:30;;;;;;;;;;;;;;;5.89;49.25;101706.31;106936;1283;58660;-89
2023/04/04 15:45:58;;;;;;;;;;;;;;;5.84;49.24;101708.39;106942;1283;72430;-88
2023/04/04 15:49:27;;;;;;;;;;;;;;;5.78;49.19;101704.33;106924;1283;67114;-87
2023/04/04 15:52:53;;;;;;;;;;;;;;;5.75;49.20;101701.68;106025;1289;72186;-91
2023/04/04 15:56:19;;;;;;;;;;;;;;;5.71;49.28;101700.10;106903;1284;58705;-88
2023/04/04 15:59:46;;;;;;;;;;;;;;;5.70;49.04;101694.60;106826;1282;59345;-88
2023/04/04 16:03:12;;;;;;;;;;;;;;;5.72;49.06;101691.71;107376;1278;73004;-88
2023/04/04 16:06:38;;;;;;;;;;;;;;;5.73;49.00;101689.67;107401;1277;68194;-89
2023/04/04 16:09:44;;;;;;;;;;;;;;;5.75;49.11;101690.58;107323;1277;73399;-85
2023/04/04 16:12:31;;;;;;;;;;;;;;;5.75;49.18;101690.23;107208;1281;60421;-85
2023/04/04 16:15:37;;;;;;;;;;;;;;;5.75;49.11;101688.69;107165;1280;60747;-87
2023/04/04 16:19:04;;;;;;;;;;;;;;;5.76;49.13;101689.90;107554;1271;73646;-88
2023/04/04 16:22:30;;;;;;;;;;;;;;;5.79;49.07;101688.09;107848;1272;67573;-88
2023/04/04 16:25:56;;;;;;;;;;;;;;;5.77;48.87;101681.89;107703;1271;72903;-88
2023/04/04 16:29:23;;;;;;;;;;;;;;;5.75;48.99;101685.27;108041;1264;59349;-88
2023/04/04 16:32:49;;;;;;;;;;;;;;;5.72;49.05;101685.56;108311;1265;60372;-88
2023/04/04 16:36:15;;;;;;;;;;;;;;;5.68;48.92;101683.44;107878;1267;72275;-89
2023/04/04 16:39:42;;;;;;;;;;;;;;;5.64;49.01;101685.08;108228;1264;68383;-87
2023/04/04 16:43:08;;;;;;;;;;;;;;;5.60;48.92;101685.33;107858;1264;71147;-89
2023/04/04 16:46:35;;;;;;;;;;;;;;;5.56;48.89;101682.52;108325;1264;60324;-88
2023/04/04 16:50:01;;;;;;;;;;;;;;;5.51;48.90;101678.13;108316;1263;60219;-88
2023/04/04 16:53:27;;;;;;;;;;;;;;;5.45;48.87;101678.66;108252;1264;72314;-88
2023/04/04 16:56:53;;;;;;;;;;;;;;;5.39;48.89;101681.77;108241;1265;69781;-88
2023/04/04 17:00:20;;;;;;;;;;;;;;;5.32;48.99;101682.14;108138;1265;72291;-88
2023/04/04 17:03:46;;;;;;;;;;;;;;;5.25;48.90;101682.33;107745;1271;60380;-88
2023/04/04 17:07:13;;;;;;;;;;;;;;;5.20;49.01;101685.80;107767;1271;60356;-88
2023/04/04 17:10:40;;;;;;;;;;;;;;;5.15;49.00;101682.27;107781;1272;72262;-88
2023/04/04 17:14:05;;;;;;;;;;;;;;;5.10;48.99;101683.70;107695;1272;68742;-88
2023/04/04 17:17:32;;;;;;;;;;;;;;;5.05;48.96;101680.34;107783;1271;72977;-87
2023/04/04 17:20:58;;;;;;;;;;;;;;;5.00;48.97;101685.52;107644;1270;58470;-87
2023/04/04 17:24:26;;;;;;;;;;;;;;;4.91;48.86;101681.02;107695;1272;60525;-87
2023/04/04 17:27:51;;;;;;;;;;;;;;;4.82;48.81;101681.65;107631;1271;73628;-88
2023/04/04 17:31:17;;;;;;;;;;;;;;;4.73;48.93;101678.02;107726;1272;67957;-88
2023/04/04 17:34:15;;;;;;;;;;;;;;;4.69;48.88;101681.85;107974;1263;78781;-86
2023/04/04 17:37:41;;;;;;;;;;;;;;;4.60;48.90;101685.05;107970;1263;60487;-86
2023/04/04 17:41:07;;;;;;;;;;;;;;;4.52;48.99;101684.85;107983;1263;61984;-86
2023/04/04 17:44:33;;;;;;;;;;;;;;;4.46;48.97;101686.25;108020;1263;73717;-85
2023/04/04 17:47:59;;;;;;;;;;;;;;;4.40;48.96;101687.96;107993;1263;67172;-86
2023/04/04 17:51:12;;;;;;;;;;;;;;;4.31;48.93;101692.84;108174;1262;71103;-85
2023/04/04 17:54:38;;;;;;;;;;;;;;;4.23;48.96;101693.15;107941;1263;60297;-85
2023/04/04 17:57:44;;;;;;;;;;;;;;;4.17;49.02;101691.78;108013;1263;59217;-85
2023/04/04 18:01:11;;;;;;;;;;;;;;;4.08;49.10;101690.70;107960;1263;72503;-85
2023/04/04 18:04:36;;;;;;;;;;;;;;;3.94;49.20;101689.13;109178;1263;67542;-85
2023/04/04 18:08:03;;;;;;;;;;;;;;;3.82;49.30;101694.23;107986;1262;72376;-85
2023/04/04 18:11:29;;;;;;;;;;;;;;;3.74;49.30;101696.20;108004;1262;60352;-85
2023/04/04 18:14:36;;;;;;;;;;;;;;;3.65;49.32;101693.06;103968;1263;5382493;-87
2023/04/04 18:18:04;;;;;;;;;;;;;;;3.56;49.25;101697.91;108006;1263;75113;-87
2023/04/04 18:21:29;;;;;;;;;;;;;;;3.44;49.39;101697.73;107455;1269;67407;-89
2023/04/04 18:24:56;;;;;;;;;;;;;;;3.38;49.39;101698.21;107477;1268;72423;-88
2023/04/04 18:28:22;;;;;;;;;;;;;;;3.29;49.45;101704.07;107526;1268;59150;-87
2023/04/04 18:31:48;;;;;;;;;;;;;;;3.26;49.56;101706.02;107101;1275;59942;-87
2023/04/04 18:35:16;;;;;;;;;;;;;;;3.24;49.57;101707.85;107052;1274;78667;-87
2023/04/04 18:38:42;;;;;;;;;;;;;;;3.25;49.58;101707.86;107072;1274;70839;-88
2023/04/04 18:42:09;;;;;;;;;;;;;;;3.25;49.56;101706.17;107123;1274;71435;-87
2023/04/04 18:45:36;;;;;;;;;;;;;;;3.22;49.51;101707.10;107081;1275;60512;-87
2023/04/04 18:49:02;;;;;;;;;;;;;;;3.18;49.56;101707.66;107485;1275;59059;-87
2023/04/04 18:52:28;;;;;;;;;;;;;;;3.18;49.78;101709.69;107580;1274;72312;-88
2023/04/04 18:55:54;;;;;;;;;;;;;;;3.18;49.88;101714.11;107513;1275;68378;-87
2023/04/04 18:59:22;;;;;;;;;;;;;;;3.14;50.05;101715.71;107418;1275;72567;-87
2023/04/04 19:02:47;;;;;;;;;;;;;;;3.03;50.03;101721.86;107772;1275;60251;-87
2023/04/04 19:06:14;;;;;;;;;;;;;;;2.98;50.11;101718.61;107690;1275;60324;-87
2023/04/04 19:09:40;;;;;;;;;;;;;;;2.97;50.14;101716.05;107806;1270;73442;-87
2023/04/04 19:13:07;;;;;;;;;;;;;;;2.99;50.11;101718.98;107855;1273;67112;-87
2023/04/04 19:16:34;;;;;;;;;;;;;;;3.02;50.17;101715.52;107781;1270;71308;-87
2023/04/04 19:20:01;;;;;;;;;;;;;;;3.05;50.35;101720.88;107907;1270;58477;-86
2023/04/04 19:23:27;;;;;;;;;;;;;;;3.05;50.44;101718.50;107725;1270;60430;-88
2023/04/04 19:26:54;;;;;;;;;;;;;;;3.02;50.29;101718.89;107516;1271;73419;-87
2023/04/04 19:30:20;;;;;;;;;;;;;;;3.00;50.24;101719.36;107886;1269;66519;-87
2023/04/04 19:33:47;;;;;;;;;;;;;;;3.01;50.33;101714.95;107763;1269;71259;-86
2023/04/04 19:37:20;;;;;;;;;;;;;;;3.03;50.52;101715.54;108033;1263;60429;-87
2023/04/04 19:40:47;;;;;;;;;;;;;;;3.02;50.67;101715.52;107518;1269;60401;-87
2023/04/04 19:44:13;;;;;;;;;;;;;;;3.00;50.58;101715.10;107498;1269;72782;-87
2023/04/04 19:47:40;;;;;;;;;;;;;;;2.98;50.61;101718.11;107491;1269;69889;-87
2023/04/04 19:51:06;;;;;;;;;;;;;;;2.94;50.65;101719.84;107501;1269;71116;-87
2023/04/04 19:54:41;;;;;;;;;;;;;;;2.89;50.50;101716.29;107513;1269;60628;-87
2023/04/04 19:58:05;;;;;;;;;;;;;;;2.88;50.57;101716.25;107529;1269;60382;-87
2023/04/04 20:01:33;;;;;;;;;;;;;;;2.82;50.63;101718.45;107443;1269;73752;-87
2023/04/04 20:10:09;;;;;;;;;;;;;;;2.62;50.71;101720.33;107983;1264;60226;-86
2023/04/04 20:13:39;;;;;;;;;;;;;;;2.55;50.68;101724.34;107915;1263;60356;-87
2023/04/04 20:17:05;;;;;;;;;;;;;;;2.50;50.71;101724.35;107306;1273;73204;-87
2023/04/04 20:20:32;;;;;;;;;;;;;;;2.43;50.82;101721.20;107309;1272;67375;-87
2023/04/04 20:24:03;;;;;;;;;;;;;;;2.39;50.88;101718.66;106871;1282;71245;-87
2023/04/04 20:27:32;;;;;;;;;;;;;;;2.38;50.89;101721.35;106907;1280;61433;-86
2023/04/04 20:30:55;;;;;;;;;;;;;;;2.40;50.89;101719.91;106924;1279;60463;-87
2023/04/04 20:34:21;;;;;;;;;;;;;;;2.41;50.91;101719.44;106903;1280;73904;-87
2023/04/04 20:37:47;;;;;;;;;;;;;;;2.40;50.95;101723.98;106946;1280;67525;-87
2023/04/04 20:41:16;;;;;;;;;;;;;;;2.40;51.03;101722.81;106868;1278;75167;-86
2023/04/04 20:44:43;;;;;;;;;;;;;;;2.40;51.28;101719.91;106475;1283;60431;-87
2023/04/04 20:48:10;;;;;;;;;;;;;;;2.41;51.28;101721.80;106573;1283;60502;-87
2023/04/04 20:51:48;;;;;;;;;;;;;;;2.40;51.24;101724.34;105862;1291;72283;-87
2023/04/04 20:55:15;;;;;;;;;;;;;;;2.40;51.42;101723.81;106537;1283;70171;-87
2023/04/04 20:58:44;;;;;;;;;;;;;;;2.39;51.42;101728.37;106507;1283;70238;-87
2023/04/04 21:02:11;;;;;;;;;;;;;;;2.39;51.43;101727.34;106681;1285;60376;-87
2023/04/04 21:05:46;;;;;;;;;;;;;;;2.38;51.55;101727.50;106800;1280;60431;-87
2023/04/04 21:09:12;;;;;;;;;;;;;;;2.36;51.65;101724.34;106644;1280;73744;-87
2023/04/04 21:12:39;;;;;;;;;;;;;;;2.34;51.72;101723.63;106778;1280;67198;-87
2023/04/04 21:16:06;;;;;;;;;;;;;;;2.35;51.84;101720.07;106684;1280;71362;-87
2023/04/04 21:19:32;;;;;;;;;;;;;;;2.33;51.88;101721.72;106150;1289;60358;-87
2023/04/04 21:22:59;;;;;;;;;;;;;;;2.31;51.80;101720.62;106471;1283;61250;-87
2023/04/04 21:26:25;;;;;;;;;;;;;;;2.30;51.91;101718.21;106508;1283;73635;-87
2023/04/04 21:29:52;;;;;;;;;;;;;;;2.28;51.95;101719.01;106546;1283;67290;-87
2023/04/04 21:33:20;;;;;;;;;;;;;;;2.28;51.97;101716.26;106445;1283;71396;-87
2023/04/04 21:36:52;;;;;;;;;;;;;;;2.29;52.12;101713.76;106440;1283;60685;-87
2023/04/04 21:40:19;;;;;;;;;;;;;;;2.28;52.19;101712.67;106507;1286;60582;-87
2023/04/04 21:43:45;;;;;;;;;;;;;;;2.29;52.17;101709.15;106388;1283;72301;-87
2023/04/04 21:47:12;;;;;;;;;;;;;;;2.29;52.21;101705.73;106387;1285;67660;-87
2023/04/04 21:50:38;;;;;;;;;;;;;;;2.31;52.34;101704.27;106797;1286;72692;-87
2023/04/04 21:54:05;;;;;;;;;;;;;;;2.32;52.25;101704.16;106033;1287;59608;-87
2023/04/04 21:57:31;;;;;;;;;;;;;;;2.33;52.34;101696.52;106595;1280;60462;-87
2023/04/04 22:01:06;;;;;;;;;;;;;;;2.30;52.39;101695.73;106586;1280;74627;-88
2023/04/04 22:04:35;;;;;;;;;;;;;;;2.28;52.47;101694.30;106027;1291;67391;-87
2023/04/04 22:08:01;;;;;;;;;;;;;;;2.27;52.53;101692.23;105767;1289;71763;-87
2023/04/04 22:11:28;;;;;;;;;;;;;;;2.23;52.54;101694.13;105228;1295;60535;-87
2023/04/04 22:14:57;;;;;;;;;;;;;;;2.20;52.56;101688.43;104877;1298;61303;-87
2023/04/04 22:18:29;;;;;;;;;;;;;;;2.18;52.72;101686.45;105264;1292;72582;-87
2023/04/04 22:21:48;;;;;;;;;;;;;;;2.14;52.80;101682.59;105436;1292;68360;-87
2023/04/04 22:25:14;;;;;;;;;;;;;;;2.09;52.85;101675.93;105380;1292;71310;-87
2023/04/04 22:28:44;;;;;;;;;;;;;;;2.00;52.72;101673.79;105222;1298;60559;-87
2023/04/04 22:32:08;;;;;;;;;;;;;;;1.92;52.87;101669.41;104547;1301;60678;-87
2023/04/04 22:35:34;;;;;;;;;;;;;;;1.91;52.95;101667.17;104697;1303;73995;-87
2023/04/04 22:39:01;;;;;;;;;;;;;;;1.93;53.01;101666.38;104554;1302;68440;-87
2023/04/04 22:42:27;;;;;;;;;;;;;;;1.92;52.95;101667.04;104435;1302;72076;-87
2023/04/04 22:45:54;;;;;;;;;;;;;;;1.89;52.98;101670.31;104787;1299;61431;-87
2023/04/04 22:49:22;;;;;;;;;;;;;;;1.84;53.00;101667.95;105162;1296;60401;-88
2023/04/04 22:52:48;;;;;;;;;;;;;;;1.81;53.07;101665.08;106032;1286;73768;-88
2023/04/04 22:56:15;;;;;;;;;;;;;;;1.80;53.11;101661.99;106067;1286;68565;-88
2023/04/04 22:59:41;;;;;;;;;;;;;;;1.79;53.23;101663.67;106104;1289;71300;-87
2023/04/04 23:03:08;;;;;;;;;;;;;;;1.80;53.33;101658.94;106236;1286;60514;-88
2023/04/04 23:06:47;;;;;;;;;;;;;;;1.81;53.34;101658.98;106551;1280;60851;-88
2023/04/04 23:10:15;;;;;;;;;;;;;;;1.81;53.41;101657.27;106339;1285;72171;-88
2023/04/04 23:13:42;;;;;;;;;;;;;;;1.81;53.43;101650.13;106138;1286;67138;-87
2023/04/04 23:17:07;;;;;;;;;;;;;;;1.83;53.44;101648.16;105513;1294;72479;-88
2023/04/04 23:20:34;;;;;;;;;;;;;;;1.84;53.46;101643.45;105708;1289;60469;-88
2023/04/04 23:24:00;;;;;;;;;;;;;;;1.87;53.62;101647.63;105671;1289;62519;-88
2023/04/04 23:27:27;;;;;;;;;;;;;;;1.90;53.79;101648.77;104979;1295;73657;-88
2023/04/04 23:30:55;;;;;;;;;;;;;;;1.93;53.71;101649.04;105045;1296;67326;-87
2023/04/04 23:34:21;;;;;;;;;;;;;;;1.94;53.86;101642.13;105035;1295;71233;-88
2023/04/04 23:37:48;;;;;;;;;;;;;;;1.95;53.78;101637.21;105003;1296;60355;-87
2023/04/04 23:41:21;;;;;;;;;;;;;;;1.88;53.78;101631.54;104467;1302;60610;-87
2023/04/04 23:44:49;;;;;;;;;;;;;;;1.86;53.78;101635.36;104006;1307;73800;-87
2023/04/04 23:48:16;;;;;;;;;;;;;;;1.84;53.93;101638.70;104433;1307;67250;-88
2023/04/04 23:51:43;;;;;;;;;;;;;;;1.82;53.98;101634.52;104072;1309;70611;-88
2023/04/04 23:55:09;;;;;;;;;;;;;;;1.78;54.09;101634.41;104307;1304;60415;-87
2023/04/04 23:58:35;;;;;;;;;;;;;;;1.75;54.15;101634.44;104589;1301;61358;-86
